Sandy Cape, Australia
Current Conditions -  °F | °C
As of 3:00 PM on Wednesday 26 Nov 2014 (Local Time) from YBUD Reporting Station
Clear Clear  
Wind Chill: 84°   Ceiling: Unl
Heat Index: 86°   Visibility: 6mi
Dew Point: 64°   Wind: 14mph
Humidity: 51%   Direction: 50°NE
Pressure: 29.94"   Gusts: NA
Location:  24.72°S, 153.2°E
Report Text: YBUD 260500Z AUTO 05012KT 9999 // NCD 29/18 Q1014
Loading
Personal Weather Stations






























Interactive Weather Map New forecast layout! Learn more

10-Day Weather Forecast

Advertisements
Track Severe Weather on mobile